Flight Track Log - Related Links

Times and Time Zones

All times are in EDT time to prevent confusion due to time zone crossing. See the N900WP flight status page for this flight to view local times or setup timezone preferences in your user account.

Time Position Orientation Groundspeed Altitude Reporting Facility
EDT Latitude Longitude Course Direction KTS MPH feet Rate Location/Type
Wed 04:00:09 PM 36.5617 -93.1161 109° East 176 203 5,700  Level Memphis Center
Wed 04:01:09 PM 36.5486 -93.0536 105° East 176 203 7,500 1,815 Climbing Memphis Center
Wed 04:02:08 PM 36.5333 -92.9911 107° East 181 208 9,300 1,700 Climbing Memphis Center
Wed 04:03:09 PM 36.5158 -92.9261 109° East 188 216 10,900 1,388 Climbing Memphis Center
Wed 04:04:00 PM 36.3914 -92.6406 109° East  Level FlightAware Approximate
Wed 04:04:09 PM 36.4983 -92.8608 108° East 193 222 12,100  Level Memphis Center
Wed 04:05:09 PM 36.4789 -92.7856 108° East 200 230 13,400 1,300 Climbing Memphis Center
Wed 04:06:09 PM 36.4556 -92.7100 111° Southeast 206 237 14,700 1,200 Climbing Memphis Center
Wed 04:07:09 PM 36.4381 -92.6294 105° East 220 253 15,800 1,150 Climbing Memphis Center
Wed 04:08:09 PM 36.4167 -92.5514 109° East 230 265 17,000 1,150 Climbing Memphis Center
Wed 04:09:09 PM 36.3972 -92.4711 107° East 236 272 18,100 1,050 Climbing Memphis Center
Wed 04:10:09 PM 36.3778 -92.3933 107° East 236 272 19,100 1,050 Climbing Memphis Center
Wed 04:11:09 PM 36.3581 -92.3128 107° East 241 277 20,200 1,050 Climbing Memphis Center
Wed 04:12:09 PM 36.3364 -92.2325 109° East 241 277 21,200 1,000 Climbing Memphis Center
Wed 04:13:09 PM 36.3189 -92.1547 106° East 241 277 22,200 850 Climbing Memphis Center
Wed 04:14:09 PM 36.2992 -92.0744 107° East 241 277 22,900 900 Climbing Memphis Center
Wed 04:15:09 PM 36.2792 -91.9944 107° East 246 283 24,000 1,000 Climbing Memphis Center
Wed 04:16:09 PM 36.2572 -91.9167 109° East 246 283 24,900 933 Climbing Memphis Center
Wed 04:18:09 PM 36.2175 -91.7564 107° East 246 283 26,800 700 Climbing Memphis Center
Wed 04:19:09 PM 36.1914 -91.6789 113° Southeast 246 283 27,000 100 Climbing Memphis Center
Wed 04:20:09 PM 36.1692 -91.5883 107° East 253 291 27,000  Level Memphis Center
Wed 04:21:09 PM 36.1431 -91.4931 109° East 272 313 27,000  Level Memphis Center
Wed 04:22:08 PM 36.1189 -91.3925 107° East 286 329 27,000  Level Memphis Center
Wed 04:24:08 PM 36.0661 -91.1889 108° East 308 354 27,000  Level Memphis Center
Wed 04:25:08 PM 36.0356 -91.0886 111° Southeast 308 354 27,000  Level Memphis Center
Wed 04:26:08 PM 36.0111 -90.9856 106° East 308 354 27,000  Level Memphis Center
Wed 04:27:09 PM 35.9844 -90.8828 108° East 308 354 27,000  Level Memphis Center
Wed 04:28:09 PM 35.9578 -90.7828 108° East 308 354 27,000  Level Memphis Center
Wed 04:29:09 PM 35.9289 -90.6800 109° East 308 354 27,000  Level Memphis Center
Wed 04:30:09 PM 35.9019 -90.5775 108° East 308 354 27,000  Level Memphis Center
Wed 04:31:09 PM 35.8728 -90.4747 109° East 308 354 27,000  Level Memphis Center
Wed 04:32:09 PM 35.8481 -90.3750 107° East 308 354 27,000  Level Memphis Center
Wed 04:33:09 PM 35.8208 -90.2750 109° East 308 354 27,000  Level Memphis Center
Wed 04:34:08 PM 35.7914 -90.1728 110° East 308 354 27,000  Level Memphis Center
Wed 04:35:09 PM 35.7619 -90.0678 109° East 308 354 27,000  Level Memphis Center
Wed 04:36:09 PM 35.7347 -89.9658 108° East 313 360 27,000  Level Memphis Center
Wed 04:37:08 PM 35.7050 -89.8611 109° East 313 360 27,000  Level Memphis Center
Wed 04:38:09 PM 35.6858 -89.7692 104° East 313 360 27,000  Level Memphis Center
Wed 04:39:09 PM 35.6583 -89.6647 108° East 313 360 27,000  Level Memphis Center
Wed 04:40:09 PM 35.6264 -89.5500 109° East 318 366 27,000  Level Memphis Center
Wed 04:41:09 PM 35.5986 -89.4506 109° East 318 366 27,000  Level Memphis Center
Wed 04:42:09 PM 35.5686 -89.3489 110° East 318 366 27,000  Level Memphis Center
Wed 04:43:09 PM 35.5406 -89.2497 109° East 318 366 27,000  Level Memphis Center
Wed 04:44:08 PM 35.5125 -89.1456 108° East 318 366 27,000  Level Memphis Center
Wed 04:45:09 PM 35.4822 -89.0439 110° East 318 366 27,000  Level Memphis Center
Wed 04:46:09 PM 35.4539 -88.9425 109° East 318 366 27,000  Level Memphis Center
Wed 04:47:09 PM 35.4278 -88.8511 109° East 313 360 27,000  Level Memphis Center
Wed 04:48:09 PM 35.3972 -88.7472 110° East 313 360 27,000  Level Memphis Center
Wed 04:50:09 PM 35.3383 -88.5472 110° East 311 358 27,000  Level Memphis Center
Wed 04:51:09 PM 35.3053 -88.4411 111° Southeast 311 358 27,000  Level Memphis Center
Wed 04:52:09 PM 35.2744 -88.3375 110° East 311 358 27,000  Level Memphis Center
Wed 04:53:09 PM 35.2458 -88.2367 109° East 311 358 27,000  Level Memphis Center
Wed 04:54:09 PM 35.2169 -88.1358 109° East 311 358 27,000  Level Memphis Center
Wed 04:55:09 PM 35.1878 -88.0347 109° East 311 358 27,000  Level Memphis Center
Wed 04:56:08 PM 35.1567 -87.9317 110° East 311 358 27,000  Level Memphis Center
Wed 04:57:09 PM 35.1322 -87.8486 110° East 311 358 27,000  Level Memphis Center
Wed 04:58:09 PM 35.0942 -87.7253 111° Southeast 311 358 27,000  Level Memphis Center
Wed 04:59:08 PM 35.0606 -87.6250 112° Southeast 311 358 27,000  Level Memphis Center
Wed 05:00:09 PM 35.0333 -87.5217 108° East 311 358 27,000  Level Memphis Center
Wed 05:02:57 PM 34.9486 -87.2317 110° East 325 374 27,000  Level Atlanta Center
Wed 05:03:57 PM 34.9181 -87.1292 110° East 337 388 27,000  Level Atlanta Center
Wed 05:04:57 PM 34.8850 -87.0267 111° Southeast 332 382 27,000  Level Atlanta Center
Wed 05:05:57 PM 34.8539 -86.9269 111° Southeast 327 376 27,000  Level Atlanta Center
Wed 05:06:57 PM 34.8231 -86.8244 110° East 322 371 27,000  Level Atlanta Center
Wed 05:07:57 PM 34.7897 -86.7222 112° Southeast 322 371 27,000  Level Atlanta Center
Wed 05:08:57 PM 34.7606 -86.6178 109° East 317 365 27,000  Level Atlanta Center
Wed 05:09:57 PM 34.7294 -86.5181 111° Southeast 312 359 27,000  Level Atlanta Center
Wed 05:10:57 PM 34.6958 -86.4161 112° Southeast 312 359 27,000  Level Atlanta Center
Wed 05:11:57 PM 34.6644 -86.3167 111° Southeast 312 359 27,000  Level Atlanta Center
Wed 05:12:57 PM 34.6350 -86.2150 109° East 312 359 27,000  Level Atlanta Center
Wed 05:13:57 PM 34.5992 -86.1131 113° Southeast 312 359 27,000 -200 Level Atlanta Center
Wed 05:14:57 PM 34.5694 -86.0114 110° East 312 359 26,600 -1,100 Descending Atlanta Center
Wed 05:15:57 PM 34.5317 -85.8997 112° Southeast 322 371 24,800 -1,700 Descending Atlanta Center
Wed 05:16:57 PM 34.4997 -85.8031 112° Southeast 336 387 23,200 -1,700 Descending Atlanta Center
Wed 05:17:57 PM 34.4614 -85.6914 113° Southeast 342 394 21,400 -1,800 Descending Atlanta Center
Wed 05:18:57 PM 34.4275 -85.5800 110° East 348 400 19,600 -1,800 Descending Atlanta Center
Wed 05:19:57 PM 34.3953 -85.4736 110° East 348 400 17,800 -1,700 Descending Atlanta Center
Wed 05:20:57 PM 34.3611 -85.3700 112° Southeast 342 394 16,200 -1,450 Descending Atlanta Center
Wed 05:21:57 PM 34.3286 -85.2689 111° Southeast 334 384 14,900 -1,500 Descending Atlanta Center
Wed 05:22:57 PM 34.2942 -85.1603 111° Southeast 329 379 13,200 -1,650 Descending Atlanta Center
Wed 05:23:57 PM 34.2639 -85.0642 111° Southeast 308 354 11,600 -1,600 Descending Atlanta Center
Wed 05:24:57 PM 34.2311 -84.9733 114° Southeast 294 338 10,000 -1,550 Descending Atlanta Center
Wed 05:25:57 PM 34.2044 -84.8903 111° Southeast 287 330 8,500 -1,200 Descending Atlanta Center
Wed 05:26:57 PM 34.1633 -84.8144 123° Southeast 269 310 7,600 -950 Descending Atlanta Center
Wed 05:27:57 PM 34.1242 -84.7439 124° Southeast 260 299 6,600 -1,050 Descending Atlanta Center
Wed 05:28:57 PM 34.0847 -84.6758 125° Southeast 249 287 5,500 -800 Descending Atlanta Center
Wed 05:29:57 PM 34.0497 -84.6156 125° Southeast 226 260 5,000 -250 Descending Atlanta Center
Wed 05:30:57 PM 34.0186 -84.5600 124° Southeast 220 253 5,000 -298 Level Atlanta Center
Wed 05:32:38 PM 33.9500 -84.4500 127° Southeast 233 268 4,200 -634 Descending Atlanta TRACON
Wed 05:33:38 PM 33.9000 -84.4000 140° Southeast 213 245 3,300 -947 Descending Atlanta TRACON
Wed 05:34:32 PM 33.8667 -84.3667 140° Southeast 213 245 2,400 -950 Descending Atlanta TRACON
Wed 05:35:38 PM 33.8500 -84.3167 112° Southeast 144 166 1,400 -909 Descending Atlanta TRACON
Wed 05:37:00 PM 33.8667 -84.3000 118° Southeast  Level FlightAware Approximate
Wed 05:44:00 PM 33.8756 -84.3020 118° Southeast  Level Estimated

Login

Don't have an account? Register now (free) for customized features, flight alerts, and more!